sensor_id;sensor_type;location;lat;lon;timestamp;P1;durP1;ratioP1;P2;durP2;ratioP2
33954;SDS011;20233;50.804;7.126;2023-07-29T00:02:18;2.10;;;0.63;;
33954;SDS011;20233;50.804;7.126;2023-07-29T00:04:44;2.05;;;0.82;;
33954;SDS011;20233;50.804;7.126;2023-07-29T00:07:09;1.92;;;0.70;;
33954;SDS011;20233;50.804;7.126;2023-07-29T00:09:35;4.45;;;0.93;;
33954;SDS011;20233;50.804;7.126;2023-07-29T00:12:00;3.58;;;1.33;;
33954;SDS011;20233;50.804;7.126;2023-07-29T00:14:26;3.97;;;0.90;;
33954;SDS011;20233;50.804;7.126;2023-07-29T00:16:52;2.88;;;1.05;;
33954;SDS011;20233;50.804;7.126;2023-07-29T00:19:17;3.08;;;0.98;;
33954;SDS011;20233;50.804;7.126;2023-07-29T00:21:43;5.18;;;1.20;;
33954;SDS011;20233;50.804;7.126;2023-07-29T00:24:08;3.72;;;0.90;;
33954;SDS011;20233;50.804;7.126;2023-07-29T00:26:34;4.82;;;0.85;;
33954;SDS011;20233;50.804;7.126;2023-07-29T00:29:00;1.33;;;0.82;;
33954;SDS011;20233;50.804;7.126;2023-07-29T00:31:25;3.33;;;0.90;;
33954;SDS011;20233;50.804;7.126;2023-07-29T00:33:51;3.30;;;1.00;;
33954;SDS011;20233;50.804;7.126;2023-07-29T00:36:17;2.17;;;0.77;;
33954;SDS011;20233;50.804;7.126;2023-07-29T00:38:43;1.45;;;0.88;;
33954;SDS011;20233;50.804;7.126;2023-07-29T00:41:08;3.42;;;1.00;;
33954;SDS011;20233;50.804;7.126;2023-07-29T00:43:38;2.83;;;0.93;;
33954;SDS011;20233;50.804;7.126;2023-07-29T00:46:04;5.28;;;1.15;;
33954;SDS011;20233;50.804;7.126;2023-07-29T00:48:30;2.85;;;1.05;;
33954;SDS011;20233;50.804;7.126;2023-07-29T00:50:56;4.90;;;1.05;;
33954;SDS011;20233;50.804;7.126;2023-07-29T00:53:22;1.52;;;0.80;;
33954;SDS011;20233;50.804;7.126;2023-07-29T00:55:47;3.05;;;1.08;;
33954;SDS011;20233;50.804;7.126;2023-07-29T00:58:13;3.35;;;0.63;;
33954;SDS011;20233;50.804;7.126;2023-07-29T01:00:39;2.45;;;0.70;;
33954;SDS011;20233;50.804;7.126;2023-07-29T01:03:05;4.72;;;0.98;;
33954;SDS011;20233;50.804;7.126;2023-07-29T01:05:32;2.13;;;0.80;;
33954;SDS011;20233;50.804;7.126;2023-07-29T01:08:18;1.90;;;0.93;;
33954;SDS011;20233;50.804;7.126;2023-07-29T01:11:23;2.63;;;1.30;;
33954;SDS011;20233;50.804;7.126;2023-07-29T01:14:21;3.85;;;1.10;;
33954;SDS011;20233;50.804;7.126;2023-07-29T01:17:00;3.47;;;1.27;;
33954;SDS011;20233;50.804;7.126;2023-07-29T01:22:08;4.18;;;1.52;;
33954;SDS011;20233;50.804;7.126;2023-07-29T01:24:36;3.10;;;1.33;;
33954;SDS011;20233;50.804;7.126;2023-07-29T01:27:02;2.33;;;0.98;;
33954;SDS011;20233;50.804;7.126;2023-07-29T01:29:29;3.22;;;1.40;;
33954;SDS011;20233;50.804;7.126;2023-07-29T01:31:56;4.38;;;1.23;;
33954;SDS011;20233;50.804;7.126;2023-07-29T01:34:27;2.83;;;1.20;;
33954;SDS011;20233;50.804;7.126;2023-07-29T01:36:57;2.30;;;1.00;;
33954;SDS011;20233;50.804;7.126;2023-07-29T01:39:27;3.67;;;1.02;;
33954;SDS011;20233;50.804;7.126;2023-07-29T01:41:57;3.15;;;1.48;;
33954;SDS011;20233;50.804;7.126;2023-07-29T01:44:23;2.67;;;1.10;;
33954;SDS011;20233;50.804;7.126;2023-07-29T01:46:49;2.58;;;0.90;;
33954;SDS011;20233;50.804;7.126;2023-07-29T01:49:15;2.08;;;1.13;;
33954;SDS011;20233;50.804;7.126;2023-07-29T01:51:40;2.55;;;0.90;;
33954;SDS011;20233;50.804;7.126;2023-07-29T01:54:06;2.60;;;1.35;;
33954;SDS011;20233;50.804;7.126;2023-07-29T01:56:31;4.70;;;0.90;;
33954;SDS011;20233;50.804;7.126;2023-07-29T01:58:57;1.98;;;1.20;;
33954;SDS011;20233;50.804;7.126;2023-07-29T02:01:22;4.22;;;1.27;;
33954;SDS011;20233;50.804;7.126;2023-07-29T02:03:48;3.92;;;0.95;;
33954;SDS011;20233;50.804;7.126;2023-07-29T02:06:19;3.33;;;0.98;;
33954;SDS011;20233;50.804;7.126;2023-07-29T02:08:45;3.13;;;1.63;;
33954;SDS011;20233;50.804;7.126;2023-07-29T02:11:10;2.55;;;1.30;;
33954;SDS011;20233;50.804;7.126;2023-07-29T02:13:36;3.15;;;1.30;;
33954;SDS011;20233;50.804;7.126;2023-07-29T02:16:01;4.15;;;1.00;;
33954;SDS011;20233;50.804;7.126;2023-07-29T02:18:27;2.78;;;1.20;;
33954;SDS011;20233;50.804;7.126;2023-07-29T02:20:52;2.75;;;1.10;;
33954;SDS011;20233;50.804;7.126;2023-07-29T02:23:18;1.95;;;1.20;;
33954;SDS011;20233;50.804;7.126;2023-07-29T02:25:44;5.07;;;1.25;;
33954;SDS011;20233;50.804;7.126;2023-07-29T02:28:09;2.90;;;1.33;;
33954;SDS011;20233;50.804;7.126;2023-07-29T02:30:35;4.30;;;1.15;;
33954;SDS011;20233;50.804;7.126;2023-07-29T02:33:01;4.35;;;1.48;;
33954;SDS011;20233;50.804;7.126;2023-07-29T02:35:26;5.25;;;1.60;;
33954;SDS011;20233;50.804;7.126;2023-07-29T02:37:52;3.47;;;1.40;;
33954;SDS011;20233;50.804;7.126;2023-07-29T02:40:18;3.83;;;1.17;;
33954;SDS011;20233;50.804;7.126;2023-07-29T02:42:45;4.15;;;1.25;;
33954;SDS011;20233;50.804;7.126;2023-07-29T02:45:11;4.10;;;1.33;;
33954;SDS011;20233;50.804;7.126;2023-07-29T02:47:37;6.05;;;1.30;;
33954;SDS011;20233;50.804;7.126;2023-07-29T02:50:02;6.47;;;1.85;;
33954;SDS011;20233;50.804;7.126;2023-07-29T02:52:28;2.88;;;1.38;;
33954;SDS011;20233;50.804;7.126;2023-07-29T02:54:54;3.55;;;1.48;;
33954;SDS011;20233;50.804;7.126;2023-07-29T02:57:19;3.05;;;1.40;;
33954;SDS011;20233;50.804;7.126;2023-07-29T02:59:45;3.17;;;1.42;;
33954;SDS011;20233;50.804;7.126;2023-07-29T03:02:11;8.13;;;1.83;;
33954;SDS011;20233;50.804;7.126;2023-07-29T03:04:36;4.00;;;1.65;;
33954;SDS011;20233;50.804;7.126;2023-07-29T03:07:02;4.65;;;1.33;;
33954;SDS011;20233;50.804;7.126;2023-07-29T03:09:28;2.35;;;0.70;;
33954;SDS011;20233;50.804;7.126;2023-07-29T03:11:54;2.63;;;1.02;;
33954;SDS011;20233;50.804;7.126;2023-07-29T03:14:20;1.95;;;0.70;;
33954;SDS011;20233;50.804;7.126;2023-07-29T03:16:46;2.92;;;0.90;;
33954;SDS011;20233;50.804;7.126;2023-07-29T03:19:12;2.25;;;0.43;;
33954;SDS011;20233;50.804;7.126;2023-07-29T03:21:38;1.58;;;0.60;;
33954;SDS011;20233;50.804;7.126;2023-07-29T03:24:03;2.38;;;0.52;;
33954;SDS011;20233;50.804;7.126;2023-07-29T03:26:29;2.47;;;0.40;;
33954;SDS011;20233;50.804;7.126;2023-07-29T03:28:54;1.67;;;0.30;;
33954;SDS011;20233;50.804;7.126;2023-07-29T03:31:20;1.90;;;0.30;;
33954;SDS011;20233;50.804;7.126;2023-07-29T03:33:45;1.45;;;0.20;;
33954;SDS011;20233;50.804;7.126;2023-07-29T03:36:11;1.23;;;0.40;;
33954;SDS011;20233;50.804;7.126;2023-07-29T03:38:36;1.17;;;0.43;;
33954;SDS011;20233;50.804;7.126;2023-07-29T03:41:05;1.38;;;0.20;;
33954;SDS011;20233;50.804;7.126;2023-07-29T03:43:34;4.95;;;0.30;;
33954;SDS011;20233;50.804;7.126;2023-07-29T03:46:00;3.53;;;0.40;;
33954;SDS011;20233;50.804;7.126;2023-07-29T03:48:25;4.95;;;0.20;;
33954;SDS011;20233;50.804;7.126;2023-07-29T03:50:51;2.35;;;0.30;;
33954;SDS011;20233;50.804;7.126;2023-07-29T03:53:16;3.15;;;0.20;;
33954;SDS011;20233;50.804;7.126;2023-07-29T03:55:42;2.33;;;0.55;;
33954;SDS011;20233;50.804;7.126;2023-07-29T03:58:08;2.28;;;0.40;;
33954;SDS011;20233;50.804;7.126;2023-07-29T04:00:33;6.53;;;0.93;;
33954;SDS011;20233;50.804;7.126;2023-07-29T04:02:59;1.50;;;0.30;;
33954;SDS011;20233;50.804;7.126;2023-07-29T04:05:24;3.42;;;0.30;;
33954;SDS011;20233;50.804;7.126;2023-07-29T04:07:50;3.00;;;0.28;;
33954;SDS011;20233;50.804;7.126;2023-07-29T04:10:16;3.13;;;1.02;;
33954;SDS011;20233;50.804;7.126;2023-07-29T04:12:42;2.33;;;0.30;;
33954;SDS011;20233;50.804;7.126;2023-07-29T04:15:08;2.30;;;0.40;;
33954;SDS011;20233;50.804;7.126;2023-07-29T04:17:34;2.95;;;0.28;;
33954;SDS011;20233;50.804;7.126;2023-07-29T04:19:59;1.83;;;0.70;;
33954;SDS011;20233;50.804;7.126;2023-07-29T04:22:25;7.22;;;0.30;;
33954;SDS011;20233;50.804;7.126;2023-07-29T04:24:50;2.45;;;0.40;;
33954;SDS011;20233;50.804;7.126;2023-07-29T04:27:16;2.03;;;0.30;;
33954;SDS011;20233;50.804;7.126;2023-07-29T04:29:41;1.67;;;0.20;;
33954;SDS011;20233;50.804;7.126;2023-07-29T04:32:07;2.53;;;0.30;;
33954;SDS011;20233;50.804;7.126;2023-07-29T04:34:32;2.65;;;0.28;;
33954;SDS011;20233;50.804;7.126;2023-07-29T04:36:58;2.30;;;0.20;;
33954;SDS011;20233;50.804;7.126;2023-07-29T04:39:23;1.10;;;0.30;;
33954;SDS011;20233;50.804;7.126;2023-07-29T04:41:49;1.60;;;0.30;;
33954;SDS011;20233;50.804;7.126;2023-07-29T04:44:14;4.45;;;0.45;;
33954;SDS011;20233;50.804;7.126;2023-07-29T04:46:40;1.27;;;0.50;;
33954;SDS011;20233;50.804;7.126;2023-07-29T04:49:05;1.58;;;0.73;;
33954;SDS011;20233;50.804;7.126;2023-07-29T04:51:31;2.15;;;0.35;;
33954;SDS011;20233;50.804;7.126;2023-07-29T04:53:57;2.03;;;0.30;;
33954;SDS011;20233;50.804;7.126;2023-07-29T04:56:23;4.57;;;0.70;;
33954;SDS011;20233;50.804;7.126;2023-07-29T04:58:48;2.25;;;0.30;;
33954;SDS011;20233;50.804;7.126;2023-07-29T05:01:14;3.42;;;0.55;;
33954;SDS011;20233;50.804;7.126;2023-07-29T05:03:40;3.00;;;0.85;;
33954;SDS011;20233;50.804;7.126;2023-07-29T05:06:05;1.48;;;0.30;;
33954;SDS011;20233;50.804;7.126;2023-07-29T05:08:31;1.25;;;0.30;;
33954;SDS011;20233;50.804;7.126;2023-07-29T05:10:56;3.08;;;0.40;;
33954;SDS011;20233;50.804;7.126;2023-07-29T05:13:22;1.63;;;0.45;;
33954;SDS011;20233;50.804;7.126;2023-07-29T05:15:48;3.33;;;0.63;;
33954;SDS011;20233;50.804;7.126;2023-07-29T05:18:14;2.30;;;0.30;;
33954;SDS011;20233;50.804;7.126;2023-07-29T05:20:40;3.92;;;0.30;;
33954;SDS011;20233;50.804;7.126;2023-07-29T05:23:06;1.42;;;0.47;;
33954;SDS011;20233;50.804;7.126;2023-07-29T05:25:31;1.42;;;0.35;;
33954;SDS011;20233;50.804;7.126;2023-07-29T05:28:00;1.63;;;0.43;;
33954;SDS011;20233;50.804;7.126;2023-07-29T05:30:26;3.80;;;0.30;;
33954;SDS011;20233;50.804;7.126;2023-07-29T05:32:55;2.05;;;0.40;;
33954;SDS011;20233;50.804;7.126;2023-07-29T05:35:24;2.53;;;0.50;;
33954;SDS011;20233;50.804;7.126;2023-07-29T05:37:49;1.85;;;0.50;;
33954;SDS011;20233;50.804;7.126;2023-07-29T05:40:15;2.42;;;0.60;;
33954;SDS011;20233;50.804;7.126;2023-07-29T05:42:41;1.77;;;0.50;;
33954;SDS011;20233;50.804;7.126;2023-07-29T05:45:07;2.53;;;1.25;;
33954;SDS011;20233;50.804;7.126;2023-07-29T05:47:33;1.48;;;0.50;;
33954;SDS011;20233;50.804;7.126;2023-07-29T05:50:00;1.20;;;0.30;;
33954;SDS011;20233;50.804;7.126;2023-07-29T05:52:29;1.85;;;0.30;;
33954;SDS011;20233;50.804;7.126;2023-07-29T05:54:55;3.17;;;0.50;;
33954;SDS011;20233;50.804;7.126;2023-07-29T05:57:20;1.60;;;0.60;;
33954;SDS011;20233;50.804;7.126;2023-07-29T05:59:46;1.13;;;0.30;;
33954;SDS011;20233;50.804;7.126;2023-07-29T06:02:11;2.58;;;0.50;;
33954;SDS011;20233;50.804;7.126;2023-07-29T06:04:37;3.80;;;0.70;;
33954;SDS011;20233;50.804;7.126;2023-07-29T06:07:02;2.35;;;0.43;;
33954;SDS011;20233;50.804;7.126;2023-07-29T06:09:28;2.67;;;0.77;;
33954;SDS011;20233;50.804;7.126;2023-07-29T06:11:54;2.10;;;0.60;;
33954;SDS011;20233;50.804;7.126;2023-07-29T06:14:19;2.00;;;0.57;;
33954;SDS011;20233;50.804;7.126;2023-07-29T06:16:45;5.35;;;1.08;;
33954;SDS011;20233;50.804;7.126;2023-07-29T06:19:10;3.70;;;0.70;;
33954;SDS011;20233;50.804;7.126;2023-07-29T06:21:36;5.55;;;1.15;;
33954;SDS011;20233;50.804;7.126;2023-07-29T06:24:01;2.10;;;0.75;;
33954;SDS011;20233;50.804;7.126;2023-07-29T06:26:28;1.52;;;0.65;;
33954;SDS011;20233;50.804;7.126;2023-07-29T06:28:53;2.72;;;0.75;;
33954;SDS011;20233;50.804;7.126;2023-07-29T06:31:19;2.28;;;0.45;;
33954;SDS011;20233;50.804;7.126;2023-07-29T06:33:45;3.90;;;0.70;;
33954;SDS011;20233;50.804;7.126;2023-07-29T06:36:11;1.63;;;0.50;;
33954;SDS011;20233;50.804;7.126;2023-07-29T06:38:36;4.35;;;0.75;;
33954;SDS011;20233;50.804;7.126;2023-07-29T06:41:03;5.45;;;0.90;;
33954;SDS011;20233;50.804;7.126;2023-07-29T06:43:29;4.35;;;0.93;;
33954;SDS011;20233;50.804;7.126;2023-07-29T06:45:54;4.10;;;1.27;;
33954;SDS011;20233;50.804;7.126;2023-07-29T06:48:20;4.65;;;1.67;;
33954;SDS011;20233;50.804;7.126;2023-07-29T06:50:46;10.52;;;1.65;;
33954;SDS011;20233;50.804;7.126;2023-07-29T06:53:12;2.08;;;1.45;;
33954;SDS011;20233;50.804;7.126;2023-07-29T06:55:37;3.05;;;1.40;;
33954;SDS011;20233;50.804;7.126;2023-07-29T06:58:03;4.80;;;2.00;;
33954;SDS011;20233;50.804;7.126;2023-07-29T07:00:28;3.88;;;2.10;;
33954;SDS011;20233;50.804;7.126;2023-07-29T07:02:54;2.78;;;2.30;;
33954;SDS011;20233;50.804;7.126;2023-07-29T07:05:19;4.20;;;2.35;;
33954;SDS011;20233;50.804;7.126;2023-07-29T07:07:45;3.03;;;1.85;;
33954;SDS011;20233;50.804;7.126;2023-07-29T07:10:11;8.23;;;3.20;;
33954;SDS011;20233;50.804;7.126;2023-07-29T07:12:36;6.07;;;2.38;;
33954;SDS011;20233;50.804;7.126;2023-07-29T07:15:02;3.85;;;2.20;;
33954;SDS011;20233;50.804;7.126;2023-07-29T07:17:28;5.30;;;2.30;;
33954;SDS011;20233;50.804;7.126;2023-07-29T07:19:53;4.72;;;2.33;;
33954;SDS011;20233;50.804;7.126;2023-07-29T07:22:19;3.22;;;2.03;;
33954;SDS011;20233;50.804;7.126;2023-07-29T07:24:44;3.90;;;1.98;;
33954;SDS011;20233;50.804;7.126;2023-07-29T07:27:10;3.40;;;2.30;;
33954;SDS011;20233;50.804;7.126;2023-07-29T07:29:35;6.47;;;3.05;;
33954;SDS011;20233;50.804;7.126;2023-07-29T07:32:01;4.28;;;2.42;;
33954;SDS011;20233;50.804;7.126;2023-07-29T07:34:27;2.83;;;1.95;;
33954;SDS011;20233;50.804;7.126;2023-07-29T07:36:53;4.18;;;1.40;;
33954;SDS011;20233;50.804;7.126;2023-07-29T07:39:18;3.55;;;1.95;;
33954;SDS011;20233;50.804;7.126;2023-07-29T07:41:44;4.63;;;2.13;;
33954;SDS011;20233;50.804;7.126;2023-07-29T07:44:09;4.20;;;1.95;;
33954;SDS011;20233;50.804;7.126;2023-07-29T07:46:36;3.78;;;1.60;;
33954;SDS011;20233;50.804;7.126;2023-07-29T07:49:01;3.28;;;1.50;;
33954;SDS011;20233;50.804;7.126;2023-07-29T07:51:27;5.00;;;1.20;;
33954;SDS011;20233;50.804;7.126;2023-07-29T07:53:52;4.38;;;1.17;;
33954;SDS011;20233;50.804;7.126;2023-07-29T07:56:18;6.57;;;1.60;;
33954;SDS011;20233;50.804;7.126;2023-07-29T07:58:43;5.28;;;1.75;;
33954;SDS011;20233;50.804;7.126;2023-07-29T08:01:09;5.72;;;1.38;;
33954;SDS011;20233;50.804;7.126;2023-07-29T08:03:36;3.20;;;1.23;;
33954;SDS011;20233;50.804;7.126;2023-07-29T08:06:02;3.88;;;1.30;;
33954;SDS011;20233;50.804;7.126;2023-07-29T08:08:28;3.33;;;0.70;;
33954;SDS011;20233;50.804;7.126;2023-07-29T08:10:53;3.80;;;0.60;;
33954;SDS011;20233;50.804;7.126;2023-07-29T08:13:21;4.70;;;0.90;;
33954;SDS011;20233;50.804;7.126;2023-07-29T08:15:48;2.63;;;1.15;;
33954;SDS011;20233;50.804;7.126;2023-07-29T08:18:14;3.88;;;0.88;;
33954;SDS011;20233;50.804;7.126;2023-07-29T08:20:40;5.63;;;0.90;;
33954;SDS011;20233;50.804;7.126;2023-07-29T08:23:06;3.17;;;1.00;;
33954;SDS011;20233;50.804;7.126;2023-07-29T08:25:32;2.97;;;0.90;;
33954;SDS011;20233;50.804;7.126;2023-07-29T08:27:57;3.60;;;1.08;;
33954;SDS011;20233;50.804;7.126;2023-07-29T08:30:23;3.75;;;1.13;;
33954;SDS011;20233;50.804;7.126;2023-07-29T08:32:48;2.45;;;0.80;;
33954;SDS011;20233;50.804;7.126;2023-07-29T08:35:15;2.50;;;0.70;;
33954;SDS011;20233;50.804;7.126;2023-07-29T08:37:40;1.55;;;0.93;;
33954;SDS011;20233;50.804;7.126;2023-07-29T08:40:06;1.85;;;0.70;;
33954;SDS011;20233;50.804;7.126;2023-07-29T08:42:32;3.13;;;0.77;;
33954;SDS011;20233;50.804;7.126;2023-07-29T08:45:01;2.10;;;0.45;;
33954;SDS011;20233;50.804;7.126;2023-07-29T08:47:32;2.03;;;0.70;;
33954;SDS011;20233;50.804;7.126;2023-07-29T08:49:58;4.03;;;0.50;;
33954;SDS011;20233;50.804;7.126;2023-07-29T08:52:26;2.60;;;0.80;;
33954;SDS011;20233;50.804;7.126;2023-07-29T08:54:54;2.03;;;0.55;;
33954;SDS011;20233;50.804;7.126;2023-07-29T08:57:20;2.17;;;0.57;;
33954;SDS011;20233;50.804;7.126;2023-07-29T08:59:46;2.15;;;0.55;;
33954;SDS011;20233;50.804;7.126;2023-07-29T09:02:12;2.38;;;0.30;;
33954;SDS011;20233;50.804;7.126;2023-07-29T09:04:37;1.98;;;0.55;;
33954;SDS011;20233;50.804;7.126;2023-07-29T09:07:03;1.95;;;0.63;;
33954;SDS011;20233;50.804;7.126;2023-07-29T09:09:31;1.25;;;0.63;;
33954;SDS011;20233;50.804;7.126;2023-07-29T09:11:57;3.35;;;0.80;;
33954;SDS011;20233;50.804;7.126;2023-07-29T09:14:23;1.70;;;0.65;;
33954;SDS011;20233;50.804;7.126;2023-07-29T09:16:49;2.13;;;0.55;;
33954;SDS011;20233;50.804;7.126;2023-07-29T09:19:14;1.95;;;0.40;;
33954;SDS011;20233;50.804;7.126;2023-07-29T09:21:40;2.05;;;0.40;;
33954;SDS011;20233;50.804;7.126;2023-07-29T09:24:07;1.40;;;0.40;;
33954;SDS011;20233;50.804;7.126;2023-07-29T09:26:34;1.73;;;0.50;;
33954;SDS011;20233;50.804;7.126;2023-07-29T09:29:00;1.23;;;0.50;;
33954;SDS011;20233;50.804;7.126;2023-07-29T09:31:26;1.42;;;0.47;;
33954;SDS011;20233;50.804;7.126;2023-07-29T09:33:57;1.88;;;0.40;;
33954;SDS011;20233;50.804;7.126;2023-07-29T09:36:24;2.92;;;0.50;;
33954;SDS011;20233;50.804;7.126;2023-07-29T09:38:53;2.00;;;0.30;;
33954;SDS011;20233;50.804;7.126;2023-07-29T09:41:24;0.98;;;0.47;;
33954;SDS011;20233;50.804;7.126;2023-07-29T09:43:57;1.10;;;0.40;;
33954;SDS011;20233;50.804;7.126;2023-07-29T09:46:31;2.50;;;0.43;;
33954;SDS011;20233;50.804;7.126;2023-07-29T09:48:58;2.08;;;0.50;;
33954;SDS011;20233;50.804;7.126;2023-07-29T09:51:26;1.00;;;0.35;;
33954;SDS011;20233;50.804;7.126;2023-07-29T09:53:51;1.33;;;0.30;;
33954;SDS011;20233;50.804;7.126;2023-07-29T09:56:17;1.40;;;0.40;;
33954;SDS011;20233;50.804;7.126;2023-07-29T09:58:48;1.88;;;0.50;;
33954;SDS011;20233;50.804;7.126;2023-07-29T10:01:14;2.33;;;0.57;;
33954;SDS011;20233;50.804;7.126;2023-07-29T10:03:40;1.77;;;0.35;;
33954;SDS011;20233;50.804;7.126;2023-07-29T10:06:06;2.15;;;0.32;;
33954;SDS011;20233;50.804;7.126;2023-07-29T10:08:33;1.65;;;0.30;;
33954;SDS011;20233;50.804;7.126;2023-07-29T10:11:05;1.75;;;0.50;;
33954;SDS011;20233;50.804;7.126;2023-07-29T10:13:32;1.60;;;0.40;;
33954;SDS011;20233;50.804;7.126;2023-07-29T10:16:00;1.48;;;0.35;;
33954;SDS011;20233;50.804;7.126;2023-07-29T10:18:30;1.52;;;0.40;;
33954;SDS011;20233;50.804;7.126;2023-07-29T10:20:58;2.15;;;0.77;;
33954;SDS011;20233;50.804;7.126;2023-07-29T10:23:32;1.87;;;0.47;;
33954;SDS011;20233;50.804;7.126;2023-07-29T10:26:16;1.58;;;0.32;;
33954;SDS011;20233;50.804;7.126;2023-07-29T10:33:01;2.92;;;0.60;;
33954;SDS011;20233;50.804;7.126;2023-07-29T10:35:28;4.18;;;0.65;;
33954;SDS011;20233;50.804;7.126;2023-07-29T10:37:55;3.90;;;1.15;;
33954;SDS011;20233;50.804;7.126;2023-07-29T10:40:26;2.78;;;0.50;;
33954;SDS011;20233;50.804;7.126;2023-07-29T10:42:59;1.90;;;0.63;;
33954;SDS011;20233;50.804;7.126;2023-07-29T10:45:37;2.65;;;0.50;;
33954;SDS011;20233;50.804;7.126;2023-07-29T10:48:09;2.63;;;0.70;;
33954;SDS011;20233;50.804;7.126;2023-07-29T10:50:36;3.70;;;0.55;;
33954;SDS011;20233;50.804;7.126;2023-07-29T10:53:03;1.83;;;0.93;;
33954;SDS011;20233;50.804;7.126;2023-07-29T10:55:32;2.70;;;0.60;;
33954;SDS011;20233;50.804;7.126;2023-07-29T10:58:10;2.50;;;0.57;;
33954;SDS011;20233;50.804;7.126;2023-07-29T11:00:38;1.95;;;0.60;;
33954;SDS011;20233;50.804;7.126;2023-07-29T11:03:08;3.22;;;0.90;;
33954;SDS011;20233;50.804;7.126;2023-07-29T11:05:41;2.65;;;0.70;;
33954;SDS011;20233;50.804;7.126;2023-07-29T11:08:18;2.75;;;0.85;;
33954;SDS011;20233;50.804;7.126;2023-07-29T11:11:02;1.98;;;0.57;;
33954;SDS011;20233;50.804;7.126;2023-07-29T11:13:34;3.53;;;0.70;;
33954;SDS011;20233;50.804;7.126;2023-07-29T11:16:01;1.80;;;0.70;;
33954;SDS011;20233;50.804;7.126;2023-07-29T11:18:28;2.28;;;0.63;;
33954;SDS011;20233;50.804;7.126;2023-07-29T11:20:55;2.67;;;0.80;;
33954;SDS011;20233;50.804;7.126;2023-07-29T11:23:32;1.35;;;0.50;;
33954;SDS011;20233;50.804;7.126;2023-07-29T11:26:00;1.85;;;0.80;;
33954;SDS011;20233;50.804;7.126;2023-07-29T11:28:26;1.02;;;0.40;;
33954;SDS011;20233;50.804;7.126;2023-07-29T11:30:53;1.50;;;0.70;;
33954;SDS011;20233;50.804;7.126;2023-07-29T11:33:20;2.58;;;1.10;;
33954;SDS011;20233;50.804;7.126;2023-07-29T11:35:47;3.15;;;0.73;;
33954;SDS011;20233;50.804;7.126;2023-07-29T11:38:16;2.97;;;1.00;;
33954;SDS011;20233;50.804;7.126;2023-07-29T11:40:42;2.03;;;0.80;;
33954;SDS011;20233;50.804;7.126;2023-07-29T11:43:08;2.45;;;0.73;;
33954;SDS011;20233;50.804;7.126;2023-07-29T11:45:34;2.35;;;0.73;;
33954;SDS011;20233;50.804;7.126;2023-07-29T11:48:03;2.75;;;0.70;;
33954;SDS011;20233;50.804;7.126;2023-07-29T11:50:33;1.42;;;0.85;;
33954;SDS011;20233;50.804;7.126;2023-07-29T11:53:00;2.03;;;0.73;;
33954;SDS011;20233;50.804;7.126;2023-07-29T11:55:26;1.52;;;0.50;;
33954;SDS011;20233;50.804;7.126;2023-07-29T11:57:51;3.05;;;0.90;;
33954;SDS011;20233;50.804;7.126;2023-07-29T12:00:19;3.28;;;1.02;;
33954;SDS011;20233;50.804;7.126;2023-07-29T12:02:46;2.08;;;0.73;;
33954;SDS011;20233;50.804;7.126;2023-07-29T12:05:13;2.20;;;0.60;;
33954;SDS011;20233;50.804;7.126;2023-07-29T12:07:40;3.15;;;1.10;;
33954;SDS011;20233;50.804;7.126;2023-07-29T12:10:09;3.10;;;1.13;;
33954;SDS011;20233;50.804;7.126;2023-07-29T12:12:45;1.50;;;0.90;;
33954;SDS011;20233;50.804;7.126;2023-07-29T12:15:11;2.92;;;1.00;;
33954;SDS011;20233;50.804;7.126;2023-07-29T12:17:40;3.88;;;1.48;;
33954;SDS011;20233;50.804;7.126;2023-07-29T12:20:10;3.63;;;0.90;;
33954;SDS011;20233;50.804;7.126;2023-07-29T12:22:35;2.42;;;1.30;;
33954;SDS011;20233;50.804;7.126;2023-07-29T12:25:02;2.15;;;0.65;;
33954;SDS011;20233;50.804;7.126;2023-07-29T12:27:29;3.05;;;0.75;;
33954;SDS011;20233;50.804;7.126;2023-07-29T12:29:56;1.20;;;0.68;;
33954;SDS011;20233;50.804;7.126;2023-07-29T12:32:24;2.50;;;0.82;;
33954;SDS011;20233;50.804;7.126;2023-07-29T12:34:52;1.75;;;0.82;;
33954;SDS011;20233;50.804;7.126;2023-07-29T12:37:18;2.03;;;0.95;;
33954;SDS011;20233;50.804;7.126;2023-07-29T12:39:49;3.35;;;0.80;;
33954;SDS011;20233;50.804;7.126;2023-07-29T12:42:15;1.80;;;0.60;;
33954;SDS011;20233;50.804;7.126;2023-07-29T12:44:41;3.55;;;1.23;;
33954;SDS011;20233;50.804;7.126;2023-07-29T12:47:07;2.13;;;0.70;;
33954;SDS011;20233;50.804;7.126;2023-07-29T12:49:37;1.08;;;0.50;;
33954;SDS011;20233;50.804;7.126;2023-07-29T12:52:27;1.42;;;0.60;;
33954;SDS011;20233;50.804;7.126;2023-07-29T12:54:53;2.60;;;0.70;;
33954;SDS011;20233;50.804;7.126;2023-07-29T12:57:18;1.92;;;0.50;;
33954;SDS011;20233;50.804;7.126;2023-07-29T12:59:44;1.02;;;0.52;;
33954;SDS011;20233;50.804;7.126;2023-07-29T13:02:10;1.35;;;0.60;;
33954;SDS011;20233;50.804;7.126;2023-07-29T13:04:35;1.38;;;0.50;;
33954;SDS011;20233;50.804;7.126;2023-07-29T13:07:01;1.15;;;0.43;;
33954;SDS011;20233;50.804;7.126;2023-07-29T13:09:27;1.45;;;0.60;;
33954;SDS011;20233;50.804;7.126;2023-07-29T13:11:53;2.00;;;0.50;;
33954;SDS011;20233;50.804;7.126;2023-07-29T13:14:18;0.98;;;0.38;;
33954;SDS011;20233;50.804;7.126;2023-07-29T13:16:44;4.55;;;0.85;;
33954;SDS011;20233;50.804;7.126;2023-07-29T13:19:09;2.60;;;0.55;;
33954;SDS011;20233;50.804;7.126;2023-07-29T13:21:35;1.42;;;0.50;;
33954;SDS011;20233;50.804;7.126;2023-07-29T13:24:00;2.55;;;0.63;;
33954;SDS011;20233;50.804;7.126;2023-07-29T13:26:26;3.40;;;0.63;;
33954;SDS011;20233;50.804;7.126;2023-07-29T13:28:51;1.58;;;0.70;;
33954;SDS011;20233;50.804;7.126;2023-07-29T13:31:17;2.17;;;0.70;;
33954;SDS011;20233;50.804;7.126;2023-07-29T13:33:42;1.70;;;0.68;;
33954;SDS011;20233;50.804;7.126;2023-07-29T13:36:08;3.63;;;0.90;;
33954;SDS011;20233;50.804;7.126;2023-07-29T13:38:33;1.65;;;0.40;;
33954;SDS011;20233;50.804;7.126;2023-07-29T13:40:59;2.63;;;0.60;;
33954;SDS011;20233;50.804;7.126;2023-07-29T13:43:25;1.17;;;0.50;;
33954;SDS011;20233;50.804;7.126;2023-07-29T13:45:50;3.10;;;0.80;;
33954;SDS011;20233;50.804;7.126;2023-07-29T13:48:17;1.35;;;0.65;;
33954;SDS011;20233;50.804;7.126;2023-07-29T13:50:43;1.27;;;0.60;;
33954;SDS011;20233;50.804;7.126;2023-07-29T13:53:08;1.92;;;0.60;;
33954;SDS011;20233;50.804;7.126;2023-07-29T13:55:34;1.63;;;0.65;;
33954;SDS011;20233;50.804;7.126;2023-07-29T13:58:00;3.17;;;1.10;;
33954;SDS011;20233;50.804;7.126;2023-07-29T14:00:26;1.70;;;0.60;;
33954;SDS011;20233;50.804;7.126;2023-07-29T14:02:51;1.85;;;0.60;;
33954;SDS011;20233;50.804;7.126;2023-07-29T14:05:17;2.95;;;0.63;;
33954;SDS011;20233;50.804;7.126;2023-07-29T14:07:43;2.58;;;1.08;;
33954;SDS011;20233;50.804;7.126;2023-07-29T14:10:09;2.92;;;1.25;;
33954;SDS011;20233;50.804;7.126;2023-07-29T14:12:34;2.42;;;0.98;;
33954;SDS011;20233;50.804;7.126;2023-07-29T14:15:00;3.30;;;1.58;;
33954;SDS011;20233;50.804;7.126;2023-07-29T14:17:26;2.63;;;1.23;;
33954;SDS011;20233;50.804;7.126;2023-07-29T14:19:51;3.38;;;1.38;;
33954;SDS011;20233;50.804;7.126;2023-07-29T14:22:18;6.30;;;2.13;;
33954;SDS011;20233;50.804;7.126;2023-07-29T14:24:44;4.43;;;2.03;;
33954;SDS011;20233;50.804;7.126;2023-07-29T14:27:10;3.42;;;1.92;;
33954;SDS011;20233;50.804;7.126;2023-07-29T14:29:35;2.45;;;0.73;;
33954;SDS011;20233;50.804;7.126;2023-07-29T14:32:02;5.32;;;0.82;;
33954;SDS011;20233;50.804;7.126;2023-07-29T14:34:28;2.47;;;0.60;;
33954;SDS011;20233;50.804;7.126;2023-07-29T14:36:54;1.60;;;0.63;;
33954;SDS011;20233;50.804;7.126;2023-07-29T14:39:19;2.92;;;0.70;;
33954;SDS011;20233;50.804;7.126;2023-07-29T14:41:45;4.05;;;0.50;;
33954;SDS011;20233;50.804;7.126;2023-07-29T14:44:11;1.40;;;0.40;;
33954;SDS011;20233;50.804;7.126;2023-07-29T14:46:36;2.13;;;0.60;;
33954;SDS011;20233;50.804;7.126;2023-07-29T14:49:02;2.42;;;0.60;;
33954;SDS011;20233;50.804;7.126;2023-07-29T14:51:27;2.05;;;0.73;;
33954;SDS011;20233;50.804;7.126;2023-07-29T14:53:53;1.73;;;0.68;;